createdAt,value
2023-04-03T00:03:45.073Z,981.34
2023-04-03T00:15:45.529Z,981.27
2023-04-03T00:27:45.888Z,981.27
2023-04-03T00:39:46.308Z,981.12
2023-04-03T00:51:46.815Z,981.14
2023-04-03T01:03:47.485Z,981.18
2023-04-03T01:15:47.734Z,981.22
2023-04-03T01:27:48.141Z,981.08
2023-04-03T01:39:48.557Z,981.19
2023-04-03T01:51:49.024Z,981.10
2023-04-03T02:03:49.583Z,981.13
2023-04-03T02:15:49.916Z,981.22
2023-04-03T02:27:50.450Z,981.20
2023-04-03T02:39:50.838Z,981.19
2023-04-03T02:51:51.299Z,981.25
2023-04-03T03:03:51.845Z,981.31
2023-04-03T03:15:52.207Z,981.32
2023-04-03T03:27:52.608Z,981.31
2023-04-03T03:39:53.089Z,981.41
2023-04-03T03:51:53.577Z,981.43
2023-04-03T04:03:54.101Z,981.39
2023-04-03T04:15:54.521Z,981.42
2023-04-03T04:27:54.924Z,981.37
2023-04-03T04:39:55.382Z,981.38
2023-04-03T04:51:55.820Z,981.39
2023-04-03T05:03:56.297Z,981.44
2023-04-03T05:15:56.755Z,981.46
2023-04-03T05:27:57.159Z,981.45
2023-04-03T05:39:57.582Z,981.67
2023-04-03T05:51:58.126Z,981.86
2023-04-03T06:03:58.683Z,981.97
2023-04-03T06:15:59.014Z,982.02
2023-04-03T06:27:59.483Z,982.08
2023-04-03T14:52:25.448Z,982.32
2023-04-03T14:58:25.492Z,981.99
2023-04-03T15:04:25.583Z,982.30
2023-04-03T15:10:25.577Z,982.24
2023-04-03T15:17:22.302Z,982.34
2023-04-03T15:23:22.282Z,981.98
2023-04-03T15:29:22.277Z,982.01
2023-04-03T15:35:22.313Z,981.98
2023-04-03T15:41:22.240Z,982.00
2023-04-03T15:47:22.532Z,982.13
2023-04-03T15:53:22.520Z,982.42
2023-04-03T15:59:22.540Z,982.27
2023-04-03T16:05:22.516Z,982.25
2023-04-03T16:11:22.495Z,982.12
2023-04-03T16:17:22.516Z,982.18
2023-04-03T16:23:22.513Z,982.17
2023-04-03T16:29:22.497Z,982.39
2023-04-03T16:35:22.525Z,982.43
2023-04-03T16:41:22.543Z,982.36
2023-04-03T16:47:22.480Z,982.51
2023-04-03T16:53:22.484Z,982.30
2023-04-03T16:59:22.561Z,982.42
2023-04-03T17:05:22.489Z,982.51
2023-04-03T17:11:22.515Z,982.53
2023-04-03T17:17:22.556Z,982.52
2023-04-03T17:23:22.940Z,982.41
2023-04-03T17:29:22.508Z,982.62
2023-04-03T17:35:22.561Z,982.64
2023-04-03T17:41:22.492Z,982.64
2023-04-03T17:47:22.493Z,982.68
2023-04-03T17:53:22.518Z,983.01
2023-04-03T17:59:22.677Z,982.93
2023-04-03T18:05:22.492Z,983.03
2023-04-03T18:11:22.496Z,983.21
2023-04-03T18:17:22.521Z,983.23
2023-04-03T18:23:22.479Z,983.32
2023-04-03T18:29:22.897Z,983.48
2023-04-03T18:35:22.489Z,983.43
2023-04-03T18:41:22.514Z,983.51
2023-04-03T18:47:22.494Z,983.77
2023-04-03T18:53:22.505Z,983.87
2023-04-03T18:59:22.512Z,983.98
2023-04-03T19:05:24.793Z,984.05
2023-04-03T19:11:22.500Z,984.13
2023-04-03T19:17:22.499Z,984.26
2023-04-03T19:23:22.514Z,984.31
2023-04-03T19:29:22.484Z,984.28
2023-04-03T19:35:22.490Z,984.26
2023-04-03T19:41:22.481Z,984.45
2023-04-03T19:47:22.484Z,984.46
2023-04-03T19:53:22.485Z,984.57
2023-04-03T19:59:22.530Z,984.56
2023-04-03T20:05:22.508Z,984.40
2023-04-03T20:11:24.052Z,984.36
2023-04-03T20:17:22.481Z,984.38
2023-04-03T20:23:22.678Z,984.30
2023-04-03T20:29:22.522Z,984.23
2023-04-03T20:41:22.596Z,984.13
2023-04-03T20:47:25.622Z,983.89
2023-04-03T20:53:22.552Z,983.77
2023-04-03T20:59:22.755Z,983.77
2023-04-03T21:05:22.594Z,983.71
2023-04-03T21:11:22.920Z,983.67
2023-04-03T21:17:22.581Z,983.52
2023-04-03T21:23:22.596Z,983.57
2023-04-03T21:29:22.602Z,983.42
2023-04-03T21:35:22.600Z,983.38
2023-04-03T21:41:22.626Z,983.12
2023-04-03T21:47:22.690Z,983.24
2023-04-03T21:53:22.616Z,983.18
2023-04-03T21:59:22.724Z,983.32
2023-04-03T22:05:22.687Z,983.31
2023-04-03T22:11:24.070Z,983.23
2023-04-03T22:17:22.621Z,983.27
2023-04-03T22:23:22.599Z,983.30
2023-04-03T22:29:22.708Z,983.33
2023-04-03T22:35:22.784Z,983.23
2023-04-03T22:41:22.773Z,983.13
2023-04-03T22:47:22.764Z,983.07
2023-04-03T22:53:22.807Z,983.03
2023-04-03T22:59:22.877Z,983.14
2023-04-03T23:05:24.524Z,983.09
2023-04-03T23:11:22.796Z,983.10
2023-04-03T23:17:22.797Z,982.99
2023-04-03T23:23:24.682Z,983.04
2023-04-03T23:29:22.812Z,983.05
2023-04-03T23:35:22.810Z,982.97
2023-04-03T23:41:24.811Z,983.14
2023-04-03T23:47:22.891Z,983.15
2023-04-03T23:53:22.830Z,983.22
2023-04-03T23:59:25.963Z,983.20
